Time;durP1;ratioP1;P1;durP2;ratioP2;P2;SDS_P1;SDS_P2;PMS_P1;PMS_P2;Temp;Humidity;BMP_temperature;BMP_pressure;BME280_temperature;BME280_humidity;BME280_pressure;Samples;Min_cycle;Max_cycle;Signal;HPM_P1;HPM_P2
2024/01/12 00:01:21;;;;;;;4.78;2.53;;;1.20;99.90;;;;;;5059258;28;20038;-72
2024/01/12 00:03:47;;;;;;;5.97;2.58;;;1.30;99.90;;;;;;5064877;28;20036;-73
2024/01/12 00:06:13;;;;;;;6.28;3.03;;;1.30;99.90;;;;;;5064071;28;20666;-73
2024/01/12 00:08:38;;;;;;;6.40;3.08;;;1.30;99.90;;;;;;5068177;28;20054;-72
2024/01/12 00:11:08;;;;;;;7.35;3.80;;;1.20;99.90;;;;;;5072703;28;20085;-72
2024/01/12 00:13:34;;;;;;;7.55;4.05;;;1.20;99.90;;;;;;5067060;28;20032;-72
2024/01/12 00:16:06;;;;;;;6.00;3.22;;;1.10;99.90;;;;;;5058922;28;20730;-72
2024/01/12 00:18:32;;;;;;;5.15;2.40;;;1.00;99.90;;;;;;5064764;28;20040;-72
2024/01/12 00:20:58;;;;;;;7.35;2.85;;;1.00;99.90;;;;;;5066323;28;20032;-72
2024/01/12 00:23:23;;;;;;;5.90;2.88;;;1.30;99.90;;;;;;5074104;28;20024;-72
2024/01/12 00:25:49;;;;;;;5.72;2.55;;;1.40;99.90;;;;;;5067385;28;20129;-72
2024/01/12 00:28:15;;;;;;;6.55;2.78;;;1.50;99.90;;;;;;5058061;28;20553;-72
2024/01/12 00:30:40;;;;;;;5.68;2.63;;;1.40;99.90;;;;;;5066723;28;20989;-72
2024/01/12 00:33:06;;;;;;;5.75;2.92;;;1.30;99.90;;;;;;5060841;28;20047;-72
2024/01/12 00:35:32;;;;;;;4.75;2.42;;;1.50;99.90;;;;;;5069106;28;20063;-72
2024/01/12 00:37:58;;;;;;;5.55;2.35;;;1.50;99.90;;;;;;5066804;28;20081;-72
2024/01/12 00:40:26;;;;;;;6.20;2.15;;;1.40;99.90;;;;;;5063400;28;20078;-73
2024/01/12 00:42:51;;;;;;;3.95;2.10;;;1.30;99.90;;;;;;5070394;28;20560;-72
2024/01/12 00:45:17;;;;;;;4.57;2.30;;;1.30;99.90;;;;;;5069209;28;20112;-72
2024/01/12 00:47:43;;;;;;;7.43;3.20;;;1.30;99.90;;;;;;5063435;28;20044;-72
2024/01/12 00:50:09;;;;;;;6.78;2.72;;;1.30;99.90;;;;;;5063919;28;20465;-72
2024/01/12 00:52:35;;;;;;;6.40;2.45;;;1.30;99.90;;;;;;5061690;28;20156;-72
2024/01/12 00:55:01;;;;;;;6.10;2.88;;;1.20;99.90;;;;;;5063299;28;20123;-72
2024/01/12 00:57:26;;;;;;;6.97;2.70;;;1.20;99.90;;;;;;5067643;28;20469;-72
2024/01/12 00:59:52;;;;;;;8.48;3.08;;;1.20;99.90;;;;;;5068396;28;20101;-72
2024/01/12 01:02:18;;;;;;;4.97;2.38;;;1.20;99.90;;;;;;5066444;28;20036;-73
2024/01/12 01:04:43;;;;;;;6.10;3.17;;;1.20;99.90;;;;;;5067564;28;20123;-72
2024/01/12 01:07:09;;;;;;;7.15;2.65;;;1.10;99.90;;;;;;5066503;28;20132;-72
2024/01/12 01:09:35;;;;;;;5.63;2.85;;;1.20;99.90;;;;;;5067026;28;20072;-72
2024/01/12 01:12:00;;;;;;;7.30;3.42;;;1.10;99.90;;;;;;5059510;28;20186;-72
2024/01/12 01:14:26;;;;;;;6.75;4.15;;;1.10;99.90;;;;;;5063443;28;20040;-72
2024/01/12 01:16:53;;;;;;;11.02;4.82;;;0.90;99.90;;;;;;5056479;28;20049;-72
2024/01/12 01:19:19;;;;;;;6.22;3.78;;;0.90;99.90;;;;;;5070029;28;20043;-72
2024/01/12 01:21:45;;;;;;;5.72;2.83;;;0.60;99.90;;;;;;5065603;28;20028;-72
2024/01/12 01:24:10;;;;;;;6.25;3.80;;;0.70;99.90;;;;;;5059785;28;20029;-72
2024/01/12 01:26:36;;;;;;;9.00;3.78;;;0.70;99.90;;;;;;5063560;28;20032;-72
2024/01/12 01:29:02;;;;;;;10.18;3.30;;;0.80;99.90;;;;;;5065272;28;20089;-72
2024/01/12 01:31:28;;;;;;;5.20;2.88;;;1.00;99.90;;;;;;5069016;28;21315;-72
2024/01/12 01:33:54;;;;;;;5.35;2.85;;;0.90;99.90;;;;;;5066574;28;20048;-72
2024/01/12 01:36:19;;;;;;;8.23;3.75;;;0.90;99.90;;;;;;5066030;28;20081;-72
2024/01/12 01:38:45;;;;;;;6.20;3.17;;;0.90;99.90;;;;;;5059740;28;20133;-72
2024/01/12 01:41:11;;;;;;;8.60;4.28;;;1.00;99.90;;;;;;5068909;28;20486;-72
2024/01/12 01:43:36;;;;;;;10.35;4.38;;;1.00;99.90;;;;;;5071453;28;20700;-72
2024/01/12 01:46:02;;;;;;;7.80;4.28;;;0.80;99.90;;;;;;5071438;28;20581;-72
2024/01/12 01:48:28;;;;;;;7.65;3.70;;;0.80;99.90;;;;;;5062043;28;20048;-72
2024/01/12 01:50:54;;;;;;;6.90;3.35;;;0.70;99.90;;;;;;5067285;28;20482;-72
2024/01/12 01:53:21;;;;;;;7.00;3.42;;;0.80;99.90;;;;;;5067049;28;20036;-72
2024/01/12 01:55:47;;;;;;;9.48;3.75;;;0.80;99.90;;;;;;5058685;28;20064;-72
2024/01/12 01:58:13;;;;;;;7.80;3.92;;;0.80;99.90;;;;;;5063335;28;20117;-72
2024/01/12 02:00:39;;;;;;;6.82;3.50;;;0.90;99.90;;;;;;5069006;28;20036;-73
2024/01/12 02:03:06;;;;;;;6.35;3.20;;;0.90;99.90;;;;;;5067895;28;20439;-72
2024/01/12 02:05:35;;;;;;;6.47;3.20;;;0.90;99.90;;;;;;5071908;28;20032;-72
2024/01/12 02:08:01;;;;;;;5.85;3.22;;;0.90;99.90;;;;;;5067823;28;20101;-72
2024/01/12 02:10:28;;;;;;;7.53;3.65;;;0.70;99.90;;;;;;5062134;28;21031;-72
2024/01/12 02:12:54;;;;;;;6.78;3.53;;;0.80;99.90;;;;;;5067096;28;20123;-72
2024/01/12 02:15:22;;;;;;;8.93;3.42;;;0.90;99.90;;;;;;5067226;28;20496;-72
2024/01/12 02:17:47;;;;;;;8.65;3.72;;;0.90;99.90;;;;;;5059577;28;20123;-72
2024/01/12 02:20:13;;;;;;;6.38;3.20;;;1.00;99.90;;;;;;5068515;28;20034;-73
2024/01/12 02:22:39;;;;;;;6.78;3.47;;;1.00;99.90;;;;;;5072450;28;20094;-72
2024/01/12 02:25:05;;;;;;;6.28;2.80;;;0.90;99.90;;;;;;5072935;28;20116;-72
2024/01/12 02:27:31;;;;;;;7.63;3.53;;;0.90;99.90;;;;;;5073504;28;20036;-72
2024/01/12 02:29:57;;;;;;;4.72;3.10;;;0.90;99.90;;;;;;5056066;28;20518;-72
2024/01/12 02:32:23;;;;;;;4.50;2.58;;;0.90;99.90;;;;;;5062935;28;20036;-72
2024/01/12 02:34:50;;;;;;;8.32;3.28;;;1.00;99.90;;;;;;5071977;28;20476;-72
2024/01/12 02:37:16;;;;;;;5.40;2.67;;;1.10;99.90;;;;;;5071730;28;20584;-72
2024/01/12 02:39:42;;;;;;;6.47;3.25;;;1.00;99.90;;;;;;5068708;28;20028;-72
2024/01/12 02:42:07;;;;;;;5.93;2.67;;;0.90;99.90;;;;;;5070888;28;20040;-72
2024/01/12 02:44:33;;;;;;;5.93;2.95;;;1.10;99.90;;;;;;5069432;28;20033;-72
2024/01/12 02:46:59;;;;;;;6.47;3.03;;;1.00;99.90;;;;;;5061134;28;20113;-72
2024/01/12 02:49:24;;;;;;;5.65;3.22;;;0.90;99.90;;;;;;5065968;28;20036;-71
2024/01/12 02:51:50;;;;;;;5.15;2.90;;;0.80;99.90;;;;;;5059264;28;20036;-71
2024/01/12 02:54:16;;;;;;;5.82;2.38;;;0.80;99.90;;;;;;5074099;28;20119;-72
2024/01/12 02:56:41;;;;;;;6.60;2.55;;;0.70;99.90;;;;;;5071476;28;20030;-72
2024/01/12 02:59:07;;;;;;;4.97;2.70;;;0.70;99.90;;;;;;5061843;28;20725;-72
2024/01/12 03:01:34;;;;;;;5.45;2.55;;;0.90;99.90;;;;;;5066048;28;20464;-71
2024/01/12 03:04:00;;;;;;;6.85;2.47;;;0.80;99.90;;;;;;5069974;28;20055;-72
2024/01/12 03:06:26;;;;;;;5.45;2.80;;;0.70;99.90;;;;;;5072380;28;20050;-72
2024/01/12 03:08:51;;;;;;;6.57;2.70;;;1.00;99.90;;;;;;5073296;28;20485;-72
2024/01/12 03:11:17;;;;;;;5.82;2.58;;;0.70;99.90;;;;;;5073990;28;21315;-71
2024/01/12 03:13:43;;;;;;;5.25;2.63;;;1.00;99.90;;;;;;5063193;28;20094;-71
2024/01/12 03:16:21;;;;;;;4.80;2.38;;;1.20;99.90;;;;;;5061937;28;20048;-72
2024/01/12 03:18:48;;;;;;;4.85;2.40;;;1.10;99.90;;;;;;5071345;28;20378;-71
2024/01/12 03:21:14;;;;;;;5.10;3.15;;;0.90;99.90;;;;;;5067371;28;20088;-72
2024/01/12 03:23:40;;;;;;;7.78;2.85;;;0.80;99.90;;;;;;5065451;28;20032;-73
2024/01/12 03:26:06;;;;;;;5.30;2.47;;;0.80;99.90;;;;;;5067147;28;20092;-72
2024/01/12 03:28:34;;;;;;;4.72;2.35;;;0.70;99.90;;;;;;5069508;28;20036;-72
2024/01/12 03:31:00;;;;;;;6.55;2.63;;;1.20;99.90;;;;;;5068462;28;20055;-71
2024/01/12 03:33:26;;;;;;;5.32;2.85;;;1.00;99.90;;;;;;5074958;28;20502;-72
2024/01/12 03:35:52;;;;;;;7.55;3.05;;;0.90;99.90;;;;;;5069758;28;20042;-72
2024/01/12 03:38:17;;;;;;;6.35;3.25;;;0.80;99.90;;;;;;5069084;28;20041;-71
2024/01/12 03:40:43;;;;;;;6.22;2.83;;;0.80;99.90;;;;;;5070003;28;20053;-71
2024/01/12 03:43:08;;;;;;;5.93;2.70;;;0.70;99.90;;;;;;5072188;28;20112;-72
2024/01/12 03:45:34;;;;;;;5.78;2.92;;;0.50;99.90;;;;;;5058900;28;20056;-72
2024/01/12 03:48:00;;;;;;;5.75;2.72;;;0.30;99.90;;;;;;5064601;28;20131;-72
2024/01/12 03:50:25;;;;;;;3.83;2.10;;;0.60;99.90;;;;;;5064761;28;20118;-72
2024/01/12 03:52:51;;;;;;;4.60;2.10;;;0.70;99.90;;;;;;5069794;28;20062;-71
2024/01/12 03:55:17;;;;;;;5.32;2.75;;;0.80;99.90;;;;;;5069165;28;20063;-71
2024/01/12 03:57:43;;;;;;;4.25;2.08;;;0.90;99.90;;;;;;5067937;28;20028;-71
2024/01/12 04:00:09;;;;;;;7.38;3.00;;;1.00;99.90;;;;;;5067476;28;20052;-70
2024/01/12 04:02:36;;;;;;;4.03;1.90;;;1.00;99.90;;;;;;5065305;28;20032;-72
2024/01/12 04:05:03;;;;;;;5.13;2.38;;;0.90;99.90;;;;;;5062088;28;20055;-71
2024/01/12 04:07:29;;;;;;;3.80;1.90;;;1.00;99.90;;;;;;5061761;28;20016;-73
2024/01/12 04:09:54;;;;;;;7.85;2.47;;;1.00;99.90;;;;;;5058019;28;20063;-71
2024/01/12 04:12:20;;;;;;;5.18;2.30;;;1.00;99.90;;;;;;5065319;28;20650;-71
2024/01/12 04:14:46;;;;;;;5.65;2.53;;;1.10;99.90;;;;;;5061668;28;20538;-71
2024/01/12 04:17:12;;;;;;;4.72;2.28;;;1.30;99.90;;;;;;5058853;28;20395;-72
2024/01/12 04:19:37;;;;;;;6.03;2.60;;;1.40;99.90;;;;;;5056555;28;20491;-72
2024/01/12 04:22:03;;;;;;;5.80;2.78;;;1.30;99.90;;;;;;5064326;28;20453;-72
2024/01/12 04:24:29;;;;;;;5.95;2.10;;;1.10;99.90;;;;;;5060460;28;20119;-72
2024/01/12 04:26:54;;;;;;;4.47;2.10;;;0.80;99.90;;;;;;5061902;28;20054;-72
2024/01/12 04:29:20;;;;;;;8.20;3.00;;;0.70;99.90;;;;;;5060880;28;20157;-72
2024/01/12 04:31:46;;;;;;;3.70;2.15;;;0.70;99.90;;;;;;5067392;28;20032;-72
2024/01/12 04:34:12;;;;;;;4.70;2.28;;;0.70;99.90;;;;;;5055886;28;20048;-73
2024/01/12 04:36:37;;;;;;;4.63;2.05;;;0.70;99.90;;;;;;5053934;28;20032;-72
2024/01/12 04:39:04;;;;;;;5.95;3.15;;;1.10;99.90;;;;;;5056842;28;20490;-72
2024/01/12 04:41:30;;;;;;;4.90;2.53;;;0.90;99.90;;;;;;5056681;28;20127;-72
2024/01/12 04:43:55;;;;;;;5.18;2.40;;;0.80;99.90;;;;;;5064991;28;20318;-72
2024/01/12 04:46:21;;;;;;;4.85;2.28;;;0.90;99.90;;;;;;5060031;28;20033;-70
2024/01/12 04:48:47;;;;;;;5.63;2.15;;;0.70;99.90;;;;;;5057743;28;20063;-71
2024/01/12 04:51:12;;;;;;;4.68;2.00;;;0.70;99.90;;;;;;5070189;28;20734;-71
2024/01/12 04:53:38;;;;;;;5.15;2.67;;;0.90;99.90;;;;;;5060310;28;20747;-72
2024/01/12 04:56:04;;;;;;;4.88;2.42;;;0.70;99.90;;;;;;5062145;28;20401;-71
2024/01/12 04:58:29;;;;;;;5.05;2.35;;;0.50;99.90;;;;;;5058538;28;20123;-71
2024/01/12 05:00:55;;;;;;;4.97;2.50;;;0.60;99.90;;;;;;5069959;28;20043;-72
2024/01/12 05:03:21;;;;;;;4.57;2.72;;;1.00;99.90;;;;;;5061018;28;20032;-71
2024/01/12 05:05:46;;;;;;;5.22;2.28;;;1.30;99.90;;;;;;5061471;28;20127;-71
2024/01/12 05:08:12;;;;;;;4.68;2.58;;;1.40;99.90;;;;;;5055872;28;20127;-71
2024/01/12 05:10:38;;;;;;;6.22;2.58;;;0.90;99.90;;;;;;5055172;28;20052;-72
2024/01/12 05:13:04;;;;;;;6.18;2.85;;;0.60;99.90;;;;;;5066353;28;20136;-72
2024/01/12 05:15:29;;;;;;;4.35;2.13;;;0.90;99.90;;;;;;5051194;28;20079;-72
2024/01/12 05:17:55;;;;;;;5.55;2.30;;;0.70;99.90;;;;;;5057870;28;20032;-72
2024/01/12 05:20:21;;;;;;;4.57;2.38;;;0.80;99.90;;;;;;5070255;28;20031;-72
2024/01/12 05:22:47;;;;;;;3.97;2.00;;;0.60;99.90;;;;;;5066956;28;20036;-72
2024/01/12 05:25:14;;;;;;;4.15;2.00;;;1.00;99.90;;;;;;5063478;28;20048;-72
2024/01/12 05:27:39;;;;;;;3.00;1.50;;;1.10;99.90;;;;;;5061974;28;20040;-72
2024/01/12 05:30:06;;;;;;;5.85;2.33;;;0.90;99.90;;;;;;5063567;28;20507;-72
2024/01/12 05:32:32;;;;;;;4.30;2.03;;;0.90;99.90;;;;;;5067804;28;20039;-72
2024/01/12 05:34:58;;;;;;;4.10;2.10;;;1.10;99.90;;;;;;5058185;28;20690;-72
2024/01/12 05:37:23;;;;;;;5.40;2.50;;;1.10;99.90;;;;;;5066043;28;20031;-72
2024/01/12 05:39:49;;;;;;;4.93;2.25;;;1.30;99.90;;;;;;5060952;28;20128;-72
2024/01/12 05:42:15;;;;;;;4.53;2.28;;;1.20;99.90;;;;;;5057932;28;20490;-72
2024/01/12 05:44:41;;;;;;;4.15;2.25;;;1.00;99.90;;;;;;5064518;28;20036;-72
2024/01/12 05:47:06;;;;;;;5.68;2.80;;;0.70;99.90;;;;;;5060992;28;20028;-71
2024/01/12 05:49:32;;;;;;;6.75;2.75;;;0.70;99.90;;;;;;5052331;28;20045;-72
2024/01/12 05:51:58;;;;;;;6.57;3.42;;;0.70;99.90;;;;;;5064826;28;20055;-72
2024/01/12 05:54:23;;;;;;;6.10;3.15;;;0.50;99.90;;;;;;5060585;28;20491;-72
2024/01/12 05:56:49;;;;;;;6.75;3.15;;;0.40;99.90;;;;;;5063811;28;20047;-72
2024/01/12 05:59:15;;;;;;;7.88;3.00;;;0.40;99.90;;;;;;5056016;28;20541;-72
2024/01/12 06:01:41;;;;;;;7.72;3.17;;;0.20;99.90;;;;;;5057157;28;20879;-71
2024/01/12 06:04:07;;;;;;;5.35;2.63;;;0.30;99.90;;;;;;5062624;28;20028;-71
2024/01/12 06:06:32;;;;;;;4.78;2.50;;;0.10;99.90;;;;;;5056765;28;20961;-72
2024/01/12 06:08:58;;;;;;;4.82;2.47;;;0.00;99.90;;;;;;5064879;28;20051;-74
2024/01/12 06:11:24;;;;;;;4.78;2.45;;;0.20;99.90;;;;;;5053731;28;20052;-72
2024/01/12 06:13:49;;;;;;;4.72;2.05;;;0.30;99.90;;;;;;5069539;28;20028;-72
2024/01/12 06:16:15;;;;;;;5.38;2.17;;;0.50;99.90;;;;;;5055562;28;20699;-73
2024/01/12 06:18:41;;;;;;;6.28;2.85;;;0.40;99.90;;;;;;5068944;28;20029;-73
2024/01/12 06:21:06;;;;;;;5.82;2.67;;;0.40;99.90;;;;;;5060087;28;20056;-76
2024/01/12 06:23:32;;;;;;;5.60;2.42;;;0.80;99.90;;;;;;5065504;28;20024;-73
2024/01/12 06:25:58;;;;;;;4.65;2.30;;;0.80;99.90;;;;;;5055809;28;20040;-74
2024/01/12 06:28:23;;;;;;;8.25;3.00;;;1.00;99.90;;;;;;5052827;28;20096;-73
2024/01/12 06:30:53;;;;;;;5.22;2.58;;;1.20;99.90;;;;;;5062031;28;20245;-73
2024/01/12 06:33:19;;;;;;;5.72;2.88;;;1.00;99.90;;;;;;5060667;28;20032;-73
2024/01/12 06:35:44;;;;;;;6.05;2.60;;;1.00;99.90;;;;;;5067946;28;20035;-73
2024/01/12 06:38:10;;;;;;;5.53;3.00;;;0.90;99.90;;;;;;5061011;28;20105;-75
2024/01/12 06:40:38;;;;;;;6.18;3.30;;;0.80;99.90;;;;;;5066810;28;20020;-76
2024/01/12 06:43:04;;;;;;;4.60;1.90;;;0.80;99.90;;;;;;5062366;28;20400;-75
2024/01/12 06:45:30;;;;;;;4.63;2.17;;;0.90;99.90;;;;;;5063472;28;20063;-73
2024/01/12 06:47:55;;;;;;;6.15;2.10;;;1.20;99.90;;;;;;5052848;28;20498;-75
2024/01/12 06:50:21;;;;;;;6.85;2.90;;;0.90;99.90;;;;;;5049116;28;20068;-77
2024/01/12 06:52:47;;;;;;;6.60;3.20;;;0.90;99.90;;;;;;5050864;28;20428;-75
2024/01/12 06:55:12;;;;;;;7.90;3.67;;;1.00;99.90;;;;;;5058687;28;20056;-75
2024/01/12 06:57:38;;;;;;;24.17;13.25;;;0.90;99.90;;;;;;5051091;28;20055;-75
2024/01/12 07:00:06;;;;;;;12.30;7.28;;;0.60;99.90;;;;;;5053195;28;20040;-75
2024/01/12 07:02:33;;;;;;;9.25;4.10;;;0.40;99.90;;;;;;5047356;28;20081;-75
2024/01/12 07:04:59;;;;;;;4.50;2.47;;;0.50;99.90;;;;;;5043669;28;20613;-75
2024/01/12 07:07:25;;;;;;;5.60;2.63;;;0.40;99.90;;;;;;5055482;28;20032;-77
2024/01/12 07:09:50;;;;;;;5.32;2.35;;;0.40;99.90;;;;;;5054356;28;20036;-74
2024/01/12 07:12:16;;;;;;;4.35;2.58;;;0.40;99.90;;;;;;5055169;28;20101;-75
2024/01/12 07:14:42;;;;;;;7.40;5.25;;;0.40;99.90;;;;;;5055367;28;20048;-75
2024/01/12 07:17:07;;;;;;;7.18;5.00;;;0.30;99.90;;;;;;5047760;28;20894;-75
2024/01/12 07:19:33;;;;;;;9.45;4.70;;;0.20;99.90;;;;;;5054149;28;20569;-75
2024/01/12 07:21:58;;;;;;;8.07;3.97;;;0.30;99.90;;;;;;5058489;28;20482;-75
2024/01/12 07:24:24;;;;;;;6.15;3.63;;;0.10;99.90;;;;;;5058052;28;20108;-79
2024/01/12 07:26:50;;;;;;;8.35;4.10;;;0.10;99.90;;;;;;5049207;28;20807;-75
2024/01/12 07:29:16;;;;;;;7.28;3.22;;;0.00;99.90;;;;;;5055506;28;20174;-76
2024/01/12 07:31:42;;;;;;;6.05;3.08;;;0.00;99.90;;;;;;5052673;28;20058;-75
2024/01/12 07:34:08;;;;;;;8.15;3.17;;;0.00;99.90;;;;;;5050350;28;20756;-75
2024/01/12 07:36:34;;;;;;;7.72;3.42;;;0.10;99.90;;;;;;5048805;28;20029;-75
2024/01/12 07:38:59;;;;;;;5.72;3.10;;;0.10;99.90;;;;;;5053431;28;20032;-76
2024/01/12 07:41:26;;;;;;;4.40;2.42;;;0.00;99.90;;;;;;5057905;28;20630;-75
2024/01/12 07:43:53;;;;;;;5.95;2.92;;;-0.10;99.90;;;;;;5053511;28;20191;-75
2024/01/12 07:46:18;;;;;;;5.07;2.88;;;0.10;99.90;;;;;;5059440;28;20511;-75
2024/01/12 07:48:50;;;;;;;5.90;3.28;;;0.10;99.90;;;;;;5057313;28;20044;-75
2024/01/12 07:51:16;;;;;;;5.75;2.97;;;0.10;99.90;;;;;;5058232;28;20032;-75
2024/01/12 07:53:42;;;;;;;7.22;3.28;;;0.20;99.90;;;;;;5061667;28;20117;-74
2024/01/12 07:56:09;;;;;;;6.47;3.22;;;-0.10;99.90;;;;;;5061261;28;20178;-75
2024/01/12 07:58:35;;;;;;;6.07;3.05;;;0.00;99.90;;;;;;5062621;28;20060;-74
2024/01/12 08:01:01;;;;;;;6.93;3.20;;;0.10;99.90;;;;;;5053945;28;20386;-73
2024/01/12 08:03:26;;;;;;;6.95;3.05;;;0.10;99.90;;;;;;5051793;28;20040;-73
2024/01/12 08:05:52;;;;;;;7.13;3.20;;;0.10;99.90;;;;;;5058142;28;20057;-75
2024/01/12 08:08:19;;;;;;;6.15;2.88;;;0.10;99.90;;;;;;5067523;28;20047;-74
2024/01/12 08:10:46;;;;;;;7.65;3.58;;;0.10;99.90;;;;;;5057710;28;20077;-74
2024/01/12 08:13:12;;;;;;;7.60;3.58;;;0.10;99.90;;;;;;5069158;28;20041;-74
2024/01/12 08:15:38;;;;;;;6.93;3.42;;;0.20;99.90;;;;;;5062922;28;20627;-74
2024/01/12 08:18:04;;;;;;;6.60;2.95;;;0.20;99.90;;;;;;5065154;28;20113;-74
2024/01/12 08:20:29;;;;;;;7.70;2.90;;;0.20;99.90;;;;;;5063214;28;20539;-75
2024/01/12 08:22:55;;;;;;;6.28;3.10;;;0.20;99.90;;;;;;5048420;28;20032;-74
2024/01/12 08:25:23;;;;;;;4.85;2.67;;;0.10;99.90;;;;;;5056889;28;20138;-74
2024/01/12 08:27:49;;;;;;;7.25;3.28;;;0.20;99.90;;;;;;5068446;28;20385;-74
2024/01/12 08:30:14;;;;;;;6.82;2.70;;;0.20;99.90;;;;;;5053200;28;20029;-74
2024/01/12 08:32:40;;;;;;;4.43;1.92;;;0.30;99.90;;;;;;5057422;28;20036;-73
2024/01/12 08:35:06;;;;;;;4.07;1.92;;;0.40;99.90;;;;;;5056713;28;20098;-73
2024/01/12 08:37:32;;;;;;;6.22;2.17;;;0.40;99.90;;;;;;5059591;28;20043;-73
2024/01/12 08:39:58;;;;;;;5.03;2.53;;;0.30;99.90;;;;;;5058161;28;20036;-74
2024/01/12 08:42:24;;;;;;;5.53;2.17;;;0.10;99.90;;;;;;5055558;28;20559;-74
2024/01/12 08:44:49;;;;;;;5.15;2.65;;;0.10;99.90;;;;;;5053091;28;20032;-73
2024/01/12 08:47:15;;;;;;;4.35;2.65;;;0.20;99.90;;;;;;5064618;28;20101;-74
2024/01/12 08:49:41;;;;;;;8.50;2.65;;;0.20;99.90;;;;;;5062721;28;20078;-74
2024/01/12 08:52:07;;;;;;;4.72;2.30;;;0.30;99.90;;;;;;5059732;28;20111;-74
2024/01/12 08:54:32;;;;;;;6.28;2.30;;;0.40;99.90;;;;;;5058504;28;20044;-74
2024/01/12 08:56:58;;;;;;;5.40;2.30;;;0.50;99.90;;;;;;5056678;28;20364;-74
2024/01/12 08:59:25;;;;;;;6.00;3.22;;;0.40;99.90;;;;;;5048632;28;20460;-74
2024/01/12 09:01:50;;;;;;;7.15;3.08;;;0.20;99.90;;;;;;5058389;28;20534;-74
2024/01/12 09:04:16;;;;;;;6.28;3.10;;;0.40;99.90;;;;;;5061450;28;20060;-73
2024/01/12 09:06:42;;;;;;;8.77;3.80;;;0.40;99.90;;;;;;5046905;28;21428;-74
2024/01/12 09:09:08;;;;;;;6.78;3.33;;;0.50;99.90;;;;;;5055404;28;20044;-74
2024/01/12 09:11:33;;;;;;;6.78;3.38;;;0.60;99.90;;;;;;5053894;28;20502;-73
2024/01/12 09:13:59;;;;;;;9.27;4.05;;;0.70;99.90;;;;;;5059224;28;20050;-74
2024/01/12 09:16:24;;;;;;;6.78;4.05;;;0.70;99.90;;;;;;5052934;28;20097;-74
2024/01/12 09:18:50;;;;;;;10.05;4.68;;;0.50;99.90;;;;;;5057969;28;20058;-74
2024/01/12 09:21:16;;;;;;;9.43;4.28;;;0.60;99.90;;;;;;5054801;28;20115;-74
2024/01/12 09:23:43;;;;;;;8.32;3.50;;;0.70;99.90;;;;;;5061353;28;20082;-74
2024/01/12 09:26:11;;;;;;;10.18;3.58;;;0.70;99.90;;;;;;5061453;28;20024;-73
2024/01/12 09:28:37;;;;;;;18.55;7.55;;;0.50;99.90;;;;;;5056332;28;20032;-74
2024/01/12 09:31:03;;;;;;;10.85;6.53;;;0.50;99.90;;;;;;5056968;28;20443;-73
2024/01/12 09:33:30;;;;;;;8.95;4.93;;;0.60;99.90;;;;;;5050962;28;20116;-73
2024/01/12 09:35:56;;;;;;;7.82;3.58;;;0.80;99.90;;;;;;5051369;28;20036;-74
2024/01/12 09:38:21;;;;;;;6.97;3.63;;;0.80;99.90;;;;;;5060504;28;20063;-74
2024/01/12 09:40:48;;;;;;;5.35;3.00;;;0.80;99.90;;;;;;5055296;28;20467;-74
2024/01/12 09:43:14;;;;;;;6.80;3.22;;;0.90;99.90;;;;;;5054882;28;20185;-74
2024/01/12 09:45:45;;;;;;;6.72;3.28;;;0.80;99.90;;;;;;5060918;28;20482;-73
2024/01/12 09:48:12;;;;;;;8.77;2.92;;;0.90;99.90;;;;;;5057227;28;21461;-74
2024/01/12 09:50:39;;;;;;;6.90;3.10;;;0.90;99.90;;;;;;5055671;28;20036;-74
2024/01/12 09:53:05;;;;;;;5.65;2.58;;;1.00;99.90;;;;;;5055490;28;20032;-73
2024/01/12 09:55:31;;;;;;;5.75;2.80;;;1.00;99.90;;;;;;5054213;28;20089;-73
2024/01/12 09:57:57;;;;;;;5.93;2.78;;;1.00;99.90;;;;;;5058411;28;20024;-75
2024/01/12 10:00:26;;;;;;;7.10;2.63;;;0.90;99.90;;;;;;5048719;28;20032;-73
2024/01/12 10:02:52;;;;;;;4.32;2.17;;;0.90;99.90;;;;;;5048366;28;20463;-73
2024/01/12 10:05:18;;;;;;;5.60;2.58;;;0.90;99.90;;;;;;5051816;28;20482;-74
2024/01/12 10:07:44;;;;;;;4.65;1.92;;;0.90;99.90;;;;;;5056248;28;20047;-74
2024/01/12 10:10:10;;;;;;;5.05;2.28;;;0.90;99.90;;;;;;5061135;28;20048;-74
2024/01/12 10:12:35;;;;;;;5.07;2.80;;;0.90;99.90;;;;;;5060236;28;20666;-73
2024/01/12 10:15:03;;;;;;;7.15;3.65;;;0.90;99.90;;;;;;5056000;28;20873;-74
2024/01/12 10:17:30;;;;;;;6.43;3.17;;;0.90;99.90;;;;;;5054293;28;20161;-73
2024/01/12 10:19:56;;;;;;;5.43;3.17;;;1.00;99.90;;;;;;5054618;28;20036;-75
2024/01/12 10:22:22;;;;;;;5.57;2.90;;;1.10;99.90;;;;;;5059971;28;20028;-74
2024/01/12 10:25:02;;;;;;;7.05;2.85;;;1.00;99.90;;;;;;5049949;28;20032;-74
2024/01/12 10:27:27;;;;;;;5.85;2.70;;;1.00;99.90;;;;;;5064631;28;20123;-74
2024/01/12 10:29:56;;;;;;;8.40;2.90;;;1.00;99.90;;;;;;5058795;28;20051;-74
2024/01/12 10:32:23;;;;;;;4.00;2.47;;;1.00;99.90;;;;;;5050699;28;20078;-75
2024/01/12 10:34:50;;;;;;;5.53;2.60;;;1.00;99.90;;;;;;5051917;28;20088;-74
2024/01/12 10:37:17;;;;;;;4.70;2.40;;;1.20;99.90;;;;;;5047958;28;20190;-74
2024/01/12 10:39:48;;;;;;;6.38;2.90;;;1.10;99.90;;;;;;5062050;28;20032;-74
2024/01/12 10:42:15;;;;;;;9.23;3.42;;;1.20;99.90;;;;;;5060480;28;20074;-74
2024/01/12 10:44:43;;;;;;;6.72;3.13;;;1.20;99.90;;;;;;5053888;28;20089;-74
2024/01/12 10:47:17;;;;;;;4.85;2.47;;;1.20;99.90;;;;;;5057857;28;20042;-74
2024/01/12 10:49:50;;;;;;;4.47;2.45;;;1.20;99.90;;;;;;5054692;28;20047;-74
2024/01/12 10:52:19;;;;;;;4.25;2.00;;;1.40;99.90;;;;;;5050314;28;20109;-74
2024/01/12 10:55:06;;;;;;;4.18;2.05;;;1.50;99.90;;;;;;5055006;28;20032;-74
2024/01/12 10:57:35;;;;;;;4.57;1.98;;;1.70;99.90;;;;;;5062293;28;20044;-75
2024/01/12 11:00:01;;;;;;;4.22;1.83;;;1.90;99.90;;;;;;5054251;28;20165;-74
2024/01/12 11:02:27;;;;;;;7.18;2.53;;;2.10;99.90;;;;;;5057100;28;20724;-74
2024/01/12 11:04:54;;;;;;;4.88;2.55;;;2.20;99.90;;;;;;5059141;28;20028;-74
2024/01/12 11:07:21;;;;;;;5.45;2.13;;;2.50;99.90;;;;;;5054197;28;20585;-74
2024/01/12 11:09:47;;;;;;;3.13;1.73;;;2.60;99.90;;;;;;5054936;28;20052;-74
2024/01/12 11:12:32;;;;;;;4.63;2.28;;;2.70;99.90;;;;;;5051819;28;20592;-74
2024/01/12 11:14:58;;;;;;;3.95;2.17;;;3.00;99.90;;;;;;5060176;28;20038;-74
2024/01/12 11:17:30;;;;;;;5.82;2.78;;;3.10;99.90;;;;;;5056218;28;20133;-73
2024/01/12 11:20:13;;;;;;;5.43;2.38;;;3.30;99.90;;;;;;5064214;28;20048;-74
2024/01/12 11:22:40;;;;;;;3.92;2.22;;;3.60;99.90;;;;;;5056679;28;20117;-75
2024/01/12 11:25:07;;;;;;;3.35;1.75;;;3.60;99.90;;;;;;5065102;28;20125;-74
2024/01/12 11:27:49;;;;;;;4.95;2.13;;;3.60;99.90;;;;;;5060962;28;20094;-74
2024/01/12 11:30:17;;;;;;;5.00;2.17;;;3.70;99.90;;;;;;5063823;28;20048;-74
2024/01/12 11:32:44;;;;;;;9.35;4.47;;;3.60;99.90;;;;;;5058253;28;20028;-74
2024/01/12 11:35:14;;;;;;;4.93;2.92;;;3.80;99.90;;;;;;5060191;28;20040;-74
2024/01/12 11:37:58;;;;;;;5.88;3.08;;;3.80;99.90;;;;;;5060258;28;20177;-74
2024/01/12 11:40:24;;;;;;;5.20;2.80;;;4.00;99.90;;;;;;5052396;28;20036;-74
2024/01/12 11:42:51;;;;;;;3.97;2.30;;;4.10;99.90;;;;;;5059909;28;20039;-75
2024/01/12 11:45:18;;;;;;;4.07;2.00;;;4.10;99.90;;;;;;5063582;28;20063;-74
2024/01/12 11:47:44;;;;;;;3.40;1.75;;;4.20;99.90;;;;;;5065298;28;20035;-74
2024/01/12 11:50:12;;;;;;;3.63;2.20;;;4.20;99.90;;;;;;5059801;28;20752;-74
2024/01/12 11:52:38;;;;;;;3.92;1.92;;;4.40;99.90;;;;;;5058156;28;20078;-74
2024/01/12 11:55:07;;;;;;;4.78;2.25;;;4.50;99.90;;;;;;5054848;28;20039;-74
2024/01/12 11:57:36;;;;;;;5.13;2.78;;;4.60;99.90;;;;;;5059569;28;20036;-74
2024/01/12 12:00:03;;;;;;;5.32;3.22;;;4.60;99.90;;;;;;5060691;28;20123;-74
2024/01/12 12:02:29;;;;;;;7.65;3.80;;;4.70;99.90;;;;;;5059009;28;20035;-74
2024/01/12 12:04:54;;;;;;;15.07;8.57;;;4.80;99.90;;;;;;5064167;28;20035;-74
2024/01/12 12:07:27;;;;;;;11.32;5.72;;;5.00;99.90;;;;;;5062056;28;20033;-71
2024/01/12 12:09:53;;;;;;;9.18;5.43;;;5.00;99.90;;;;;;5062006;28;25657;-72
2024/01/12 12:12:20;;;;;;;9.52;6.10;;;4.90;99.90;;;;;;5064303;28;20090;-72
2024/01/12 12:15:06;;;;;;;6.57;3.85;;;5.10;99.90;;;;;;5062751;28;20520;-72
2024/01/12 12:17:37;;;;;;;6.93;3.67;;;5.10;99.90;;;;;;5058342;28;20035;-72
2024/01/12 12:20:12;;;;;;;7.65;3.47;;;5.10;99.90;;;;;;5057586;28;20073;-72
2024/01/12 12:22:45;;;;;;;5.32;3.33;;;5.30;99.90;;;;;;5064294;28;20755;-72
2024/01/12 12:25:15;;;;;;;6.20;3.30;;;5.40;99.90;;;;;;5055196;28;21209;-71
2024/01/12 12:27:47;;;;;;;6.20;2.72;;;5.50;99.20;;;;;;5065816;28;20565;-73
2024/01/12 12:30:15;;;;;;;6.03;2.50;;;5.60;99.50;;;;;;5056536;28;20047;-73
2024/01/12 12:32:42;;;;;;;6.25;2.58;;;5.50;99.40;;;;;;5064847;28;20040;-71
2024/01/12 12:35:13;;;;;;;4.43;2.55;;;5.40;99.30;;;;;;5069617;28;20046;-73
2024/01/12 12:37:41;;;;;;;4.82;2.67;;;5.50;99.30;;;;;;5057635;28;20577;-73
2024/01/12 12:40:11;;;;;;;5.65;2.63;;;5.60;99.60;;;;;;5050518;28;20486;-73
2024/01/12 12:42:39;;;;;;;4.68;2.78;;;5.60;99.40;;;;;;5053027;28;20058;-72
2024/01/12 12:45:05;;;;;;;7.28;2.30;;;5.80;99.30;;;;;;5060997;28;20047;-73
2024/01/12 12:47:32;;;;;;;5.38;3.05;;;5.80;98.80;;;;;;5053094;28;20158;-73
2024/01/12 12:49:58;;;;;;;6.75;3.20;;;5.90;99.20;;;;;;5062989;28;20035;-73
2024/01/12 12:52:24;;;;;;;7.60;4.32;;;5.80;99.40;;;;;;5049781;28;20402;-74
2024/01/12 12:54:50;;;;;;;7.57;5.70;;;5.80;99.00;;;;;;5050514;28;20040;-75